sensor_id;sensor_type;location;lat;lon;timestamp;pressure;altitude;pressure_sealevel;temperature;humidity
78198;BME280;67472;51.554;7.812;2023-05-07T00:02:00;101411.63;;;12.85;100.00
78198;BME280;67472;51.554;7.812;2023-05-07T00:04:48;101412.31;;;12.98;100.00
78198;BME280;67472;51.554;7.812;2023-05-07T00:07:35;101421.13;;;12.98;100.00
78198;BME280;67472;51.554;7.812;2023-05-07T00:10:21;101422.47;;;12.93;100.00
78198;BME280;67472;51.554;7.812;2023-05-07T00:13:07;101425.75;;;12.85;100.00
78198;BME280;67472;51.554;7.812;2023-05-07T00:15:53;101434.16;;;12.90;100.00
78198;BME280;67472;51.554;7.812;2023-05-07T00:18:41;101431.97;;;12.95;100.00
78198;BME280;67472;51.554;7.812;2023-05-07T00:21:27;101446.31;;;13.04;100.00
78198;BME280;67472;51.554;7.812;2023-05-07T00:24:13;101455.38;;;13.13;100.00
78198;BME280;67472;51.554;7.812;2023-05-07T00:27:00;101458.75;;;13.15;100.00
78198;BME280;67472;51.554;7.812;2023-05-07T00:29:46;101454.16;;;13.17;100.00
78198;BME280;67472;51.554;7.812;2023-05-07T00:32:32;101469.44;;;13.24;100.00
78198;BME280;67472;51.554;7.812;2023-05-07T00:35:20;101467.53;;;13.26;100.00
78198;BME280;67472;51.554;7.812;2023-05-07T00:38:06;101465.59;;;13.28;100.00
78198;BME280;67472;51.554;7.812;2023-05-07T00:40:52;101465.34;;;13.31;100.00
78198;BME280;67472;51.554;7.812;2023-05-07T00:43:38;101461.34;;;13.37;100.00
78198;BME280;67472;51.554;7.812;2023-05-07T00:46:25;101455.69;;;13.30;100.00
78198;BME280;67472;51.554;7.812;2023-05-07T00:49:12;101457.13;;;13.34;100.00
78198;BME280;67472;51.554;7.812;2023-05-07T00:52:00;101462.44;;;13.34;100.00
78198;BME280;67472;51.554;7.812;2023-05-07T00:54:46;101451.84;;;13.23;100.00
78198;BME280;67472;51.554;7.812;2023-05-07T00:57:33;101451.72;;;13.25;100.00
78198;BME280;67472;51.554;7.812;2023-05-07T01:00:21;101455.81;;;13.29;100.00
78198;BME280;67472;51.554;7.812;2023-05-07T01:03:07;101456.41;;;13.21;100.00
78198;BME280;67472;51.554;7.812;2023-05-07T01:05:54;101453.69;;;13.12;100.00
78198;BME280;67472;51.554;7.812;2023-05-07T01:08:43;101454.00;;;13.07;100.00
78198;BME280;67472;51.554;7.812;2023-05-07T01:11:30;101451.50;;;13.17;100.00
78198;BME280;67472;51.554;7.812;2023-05-07T01:14:17;101460.31;;;13.17;100.00
78198;BME280;67472;51.554;7.812;2023-05-07T01:17:05;101451.03;;;13.12;100.00
78198;BME280;67472;51.554;7.812;2023-05-07T01:19:52;101447.28;;;13.14;100.00
78198;BME280;67472;51.554;7.812;2023-05-07T01:22:40;101448.00;;;13.16;100.00
78198;BME280;67472;51.554;7.812;2023-05-07T01:25:27;101449.91;;;13.25;100.00
78198;BME280;67472;51.554;7.812;2023-05-07T01:28:18;101444.59;;;13.25;100.00
78198;BME280;67472;51.554;7.812;2023-05-07T01:31:04;101450.03;;;13.24;100.00
78198;BME280;67472;51.554;7.812;2023-05-07T01:33:52;101452.78;;;13.33;100.00
78198;BME280;67472;51.554;7.812;2023-05-07T01:36:40;101446.03;;;13.29;100.00
78198;BME280;67472;51.554;7.812;2023-05-07T01:39:31;101439.06;;;13.28;100.00
78198;BME280;67472;51.554;7.812;2023-05-07T01:42:18;101432.53;;;13.21;100.00
78198;BME280;67472;51.554;7.812;2023-05-07T01:45:05;101435.00;;;13.13;100.00
78198;BME280;67472;51.554;7.812;2023-05-07T01:47:52;101425.09;;;13.04;100.00
78198;BME280;67472;51.554;7.812;2023-05-07T01:50:39;101420.66;;;12.93;100.00
78198;BME280;67472;51.554;7.812;2023-05-07T01:53:27;101412.13;;;12.79;100.00
78198;BME280;67472;51.554;7.812;2023-05-07T01:56:14;101409.81;;;12.74;100.00
78198;BME280;67472;51.554;7.812;2023-05-07T01:59:01;101411.91;;;12.71;100.00
78198;BME280;67472;51.554;7.812;2023-05-07T02:01:48;101404.66;;;12.73;100.00
78198;BME280;67472;51.554;7.812;2023-05-07T02:04:34;101415.25;;;12.84;100.00
78198;BME280;67472;51.554;7.812;2023-05-07T02:07:21;101425.59;;;12.87;100.00
78198;BME280;67472;51.554;7.812;2023-05-07T02:10:08;101438.13;;;12.96;100.00
78198;BME280;67472;51.554;7.812;2023-05-07T02:12:56;101433.81;;;12.84;100.00
78198;BME280;67472;51.554;7.812;2023-05-07T02:15:42;101436.09;;;12.88;100.00
78198;BME280;67472;51.554;7.812;2023-05-07T02:18:32;101448.88;;;12.83;100.00
78198;BME280;67472;51.554;7.812;2023-05-07T02:21:19;101446.47;;;12.80;100.00
78198;BME280;67472;51.554;7.812;2023-05-07T02:24:05;101445.38;;;12.83;100.00
78198;BME280;67472;51.554;7.812;2023-05-07T02:26:52;101440.91;;;12.83;100.00
78198;BME280;67472;51.554;7.812;2023-05-07T02:29:40;101444.06;;;12.77;100.00
78198;BME280;67472;51.554;7.812;2023-05-07T02:32:26;101441.75;;;12.84;100.00
78198;BME280;67472;51.554;7.812;2023-05-07T02:35:12;101436.69;;;12.81;100.00
78198;BME280;67472;51.554;7.812;2023-05-07T02:37:58;101437.44;;;12.72;100.00
78198;BME280;67472;51.554;7.812;2023-05-07T02:40:44;101431.88;;;12.75;100.00
78198;BME280;67472;51.554;7.812;2023-05-07T02:43:31;101424.78;;;12.75;100.00
78198;BME280;67472;51.554;7.812;2023-05-07T02:46:18;101439.84;;;12.75;100.00
78198;BME280;67472;51.554;7.812;2023-05-07T02:49:10;101438.75;;;12.77;100.00
78198;BME280;67472;51.554;7.812;2023-05-07T02:51:56;101442.38;;;12.76;100.00
78198;BME280;67472;51.554;7.812;2023-05-07T02:54:43;101439.84;;;12.75;100.00
78198;BME280;67472;51.554;7.812;2023-05-07T02:57:29;101438.88;;;12.87;100.00
78198;BME280;67472;51.554;7.812;2023-05-07T03:00:17;101440.91;;;12.83;100.00
78198;BME280;67472;51.554;7.812;2023-05-07T03:03:33;101432.38;;;12.69;100.00
78198;BME280;67472;51.554;7.812;2023-05-07T03:06:19;101434.69;;;12.62;100.00
78198;BME280;67472;51.554;7.812;2023-05-07T03:09:05;101440.00;;;12.62;100.00
78198;BME280;67472;51.554;7.812;2023-05-07T03:11:52;101437.19;;;12.64;100.00
78198;BME280;67472;51.554;7.812;2023-05-07T03:14:38;101434.31;;;12.67;100.00
78198;BME280;67472;51.554;7.812;2023-05-07T03:17:24;101431.19;;;12.62;100.00
78198;BME280;67472;51.554;7.812;2023-05-07T03:20:12;101437.19;;;12.64;100.00
78198;BME280;67472;51.554;7.812;2023-05-07T03:22:59;101433.09;;;12.60;100.00
78198;BME280;67472;51.554;7.812;2023-05-07T03:25:45;101438.28;;;12.61;100.00
78198;BME280;67472;51.554;7.812;2023-05-07T03:28:32;101441.56;;;12.54;100.00
78198;BME280;67472;51.554;7.812;2023-05-07T03:31:22;101434.56;;;12.53;100.00
78198;BME280;67472;51.554;7.812;2023-05-07T03:34:08;101441.81;;;12.51;100.00
78198;BME280;67472;51.554;7.812;2023-05-07T03:36:55;101440.94;;;12.50;100.00
78198;BME280;67472;51.554;7.812;2023-05-07T03:39:42;101433.25;;;12.47;100.00
78198;BME280;67472;51.554;7.812;2023-05-07T03:42:29;101425.06;;;12.39;100.00
78198;BME280;67472;51.554;7.812;2023-05-07T03:45:16;101429.63;;;12.37;100.00
78198;BME280;67472;51.554;7.812;2023-05-07T03:48:07;101446.84;;;12.42;100.00
78198;BME280;67472;51.554;7.812;2023-05-07T03:50:54;101443.00;;;12.46;100.00
78198;BME280;67472;51.554;7.812;2023-05-07T03:53:41;101456.63;;;12.53;100.00
78198;BME280;67472;51.554;7.812;2023-05-07T03:56:28;101466.38;;;12.53;100.00
78198;BME280;67472;51.554;7.812;2023-05-07T03:59:16;101471.66;;;12.53;100.00
78198;BME280;67472;51.554;7.812;2023-05-07T04:02:04;101482.25;;;12.53;100.00
78198;BME280;67472;51.554;7.812;2023-05-07T04:04:52;101480.09;;;12.46;100.00
78198;BME280;67472;51.554;7.812;2023-05-07T04:07:39;101482.25;;;12.41;100.00
78198;BME280;67472;51.554;7.812;2023-05-07T04:10:29;101484.44;;;12.48;100.00
78198;BME280;67472;51.554;7.812;2023-05-07T04:13:17;101488.13;;;12.45;100.00
78198;BME280;67472;51.554;7.812;2023-05-07T04:16:04;101484.53;;;12.46;100.00
78198;BME280;67472;51.554;7.812;2023-05-07T04:18:54;101489.75;;;12.48;100.00
78198;BME280;67472;51.554;7.812;2023-05-07T04:21:40;101486.81;;;12.39;100.00
78198;BME280;67472;51.554;7.812;2023-05-07T04:24:26;101498.88;;;12.66;100.00
78198;BME280;67472;51.554;7.812;2023-05-07T04:27:14;101493.94;;;12.61;100.00
78198;BME280;67472;51.554;7.812;2023-05-07T04:30:00;101493.34;;;12.58;100.00
78198;BME280;67472;51.554;7.812;2023-05-07T04:32:50;101494.06;;;12.60;100.00
78198;BME280;67472;51.554;7.812;2023-05-07T04:35:36;101500.44;;;12.68;100.00
78198;BME280;67472;51.554;7.812;2023-05-07T04:38:24;101505.78;;;12.79;100.00
78198;BME280;67472;51.554;7.812;2023-05-07T04:41:12;101504.94;;;12.68;100.00
78198;BME280;67472;51.554;7.812;2023-05-07T04:44:01;101494.81;;;12.62;100.00
78198;BME280;67472;51.554;7.812;2023-05-07T04:46:51;101495.88;;;12.59;100.00
78198;BME280;67472;51.554;7.812;2023-05-07T04:49:37;101510.22;;;12.68;100.00
78198;BME280;67472;51.554;7.812;2023-05-07T04:52:24;101501.44;;;12.67;100.00
78198;BME280;67472;51.554;7.812;2023-05-07T04:55:11;101502.84;;;12.71;100.00
78198;BME280;67472;51.554;7.812;2023-05-07T04:57:59;101517.81;;;12.83;100.00
78198;BME280;67472;51.554;7.812;2023-05-07T05:00:50;101529.75;;;13.00;100.00
78198;BME280;67472;51.554;7.812;2023-05-07T05:03:36;101525.28;;;13.00;100.00
78198;BME280;67472;51.554;7.812;2023-05-07T05:06:24;101530.88;;;13.09;100.00
78198;BME280;67472;51.554;7.812;2023-05-07T05:09:11;101529.78;;;13.11;100.00
78198;BME280;67472;51.554;7.812;2023-05-07T05:11:59;101525.16;;;13.24;100.00
78198;BME280;67472;51.554;7.812;2023-05-07T05:14:45;101516.63;;;13.10;100.00
78198;BME280;67472;51.554;7.812;2023-05-07T05:17:33;101507.81;;;13.20;100.00
78198;BME280;67472;51.554;7.812;2023-05-07T05:20:22;101509.22;;;13.35;100.00
78198;BME280;67472;51.554;7.812;2023-05-07T05:23:09;101513.63;;;13.57;100.00
78198;BME280;67472;51.554;7.812;2023-05-07T05:25:56;101514.22;;;13.61;100.00
78198;BME280;67472;51.554;7.812;2023-05-07T05:28:45;101503.22;;;13.65;100.00
78198;BME280;67472;51.554;7.812;2023-05-07T05:31:32;101492.84;;;13.62;100.00
78198;BME280;67472;51.554;7.812;2023-05-07T05:34:20;101492.59;;;13.65;100.00
78198;BME280;67472;51.554;7.812;2023-05-07T05:37:07;101483.22;;;13.82;100.00
78198;BME280;67472;51.554;7.812;2023-05-07T05:39:54;101485.72;;;13.94;100.00
78198;BME280;67472;51.554;7.812;2023-05-07T05:42:40;101480.66;;;13.91;100.00
78198;BME280;67472;51.554;7.812;2023-05-07T05:45:27;101481.34;;;13.93;100.00
78198;BME280;67472;51.554;7.812;2023-05-07T05:48:14;101475.47;;;13.90;100.00
78198;BME280;67472;51.554;7.812;2023-05-07T05:51:02;101479.56;;;14.14;100.00
78198;BME280;67472;51.554;7.812;2023-05-07T05:53:48;101479.22;;;14.49;100.00
78198;BME280;67472;51.554;7.812;2023-05-07T05:56:36;101469.13;;;14.43;100.00
78198;BME280;67472;51.554;7.812;2023-05-07T05:59:22;101451.16;;;14.56;100.00
78198;BME280;67472;51.554;7.812;2023-05-07T06:02:11;101439.41;;;14.68;100.00
78198;BME280;67472;51.554;7.812;2023-05-07T06:04:57;101418.81;;;14.61;100.00
78198;BME280;67472;51.554;7.812;2023-05-07T06:07:45;101390.41;;;14.61;100.00
78198;BME280;67472;51.554;7.812;2023-05-07T06:10:31;101382.75;;;14.68;100.00
78198;BME280;67472;51.554;7.812;2023-05-07T06:13:19;101374.03;;;14.56;100.00
78198;BME280;67472;51.554;7.812;2023-05-07T06:16:06;101367.22;;;14.73;100.00
78198;BME280;67472;51.554;7.812;2023-05-07T06:18:53;101358.41;;;14.92;100.00
78198;BME280;67472;51.554;7.812;2023-05-07T06:21:39;101351.16;;;15.03;100.00
78198;BME280;67472;51.554;7.812;2023-05-07T06:24:27;101343.47;;;15.19;100.00
78198;BME280;67472;51.554;7.812;2023-05-07T06:27:13;101334.22;;;15.14;100.00
78198;BME280;67472;51.554;7.812;2023-05-07T06:30:00;101322.19;;;15.29;100.00
78198;BME280;67472;51.554;7.812;2023-05-07T06:32:47;101308.72;;;15.40;100.00
78198;BME280;67472;51.554;7.812;2023-05-07T06:35:34;101296.53;;;15.47;100.00
78198;BME280;67472;51.554;7.812;2023-05-07T06:38:20;101264.59;;;15.38;100.00
78198;BME280;67472;51.554;7.812;2023-05-07T06:41:09;101249.13;;;15.41;100.00
78198;BME280;67472;51.554;7.812;2023-05-07T06:43:57;101233.44;;;15.38;100.00
78198;BME280;67472;51.554;7.812;2023-05-07T06:47:04;101230.13;;;15.26;100.00
78198;BME280;67472;51.554;7.812;2023-05-07T06:49:50;101231.53;;;15.50;100.00
78198;BME280;67472;51.554;7.812;2023-05-07T06:52:40;101225.34;;;15.49;100.00
78198;BME280;67472;51.554;7.812;2023-05-07T06:55:26;101210.31;;;15.58;100.00
78198;BME280;67472;51.554;7.812;2023-05-07T06:58:15;101211.03;;;15.87;100.00
78198;BME280;67472;51.554;7.812;2023-05-07T07:01:01;101191.38;;;15.88;100.00
78198;BME280;67472;51.554;7.812;2023-05-07T07:03:48;101176.09;;;15.90;100.00
78198;BME280;67472;51.554;7.812;2023-05-07T07:06:34;101168.88;;;16.00;100.00
78198;BME280;67472;51.554;7.812;2023-05-07T07:09:23;101150.75;;;15.86;100.00
78198;BME280;67472;51.554;7.812;2023-05-07T07:12:11;101137.13;;;15.89;100.00
78198;BME280;67472;51.554;7.812;2023-05-07T07:15:01;101119.47;;;16.06;100.00
78198;BME280;67472;51.554;7.812;2023-05-07T07:17:48;101127.38;;;15.98;100.00
78198;BME280;67472;51.554;7.812;2023-05-07T07:20:34;101109.09;;;15.85;100.00
78198;BME280;67472;51.554;7.812;2023-05-07T07:23:22;101104.19;;;15.63;100.00
78198;BME280;67472;51.554;7.812;2023-05-07T07:26:08;101105.19;;;15.79;100.00
78198;BME280;67472;51.554;7.812;2023-05-07T07:28:55;101112.81;;;15.74;100.00
78198;BME280;67472;51.554;7.812;2023-05-07T07:31:43;101096.38;;;15.79;100.00
78198;BME280;67472;51.554;7.812;2023-05-07T07:34:29;101101.03;;;15.95;100.00
78198;BME280;67472;51.554;7.812;2023-05-07T07:37:17;101091.47;;;16.02;100.00
78198;BME280;67472;51.554;7.812;2023-05-07T07:40:04;101087.09;;;15.83;100.00
78198;BME280;67472;51.554;7.812;2023-05-07T07:42:53;101088.25;;;15.80;100.00
78198;BME280;67472;51.554;7.812;2023-05-07T07:45:40;101085.88;;;15.77;100.00
78198;BME280;67472;51.554;7.812;2023-05-07T07:48:28;101085.91;;;15.95;100.00
78198;BME280;67472;51.554;7.812;2023-05-07T07:51:15;101075.47;;;15.84;100.00
78198;BME280;67472;51.554;7.812;2023-05-07T07:54:02;101080.25;;;15.98;100.00
78198;BME280;67472;51.554;7.812;2023-05-07T07:56:50;101075.13;;;16.22;100.00
78198;BME280;67472;51.554;7.812;2023-05-07T07:59:36;101074.63;;;16.19;100.00
78198;BME280;67472;51.554;7.812;2023-05-07T08:02:23;101071.97;;;16.54;100.00
78198;BME280;67472;51.554;7.812;2023-05-07T08:05:11;101065.47;;;16.57;100.00
78198;BME280;67472;51.554;7.812;2023-05-07T08:07:58;101057.97;;;16.60;100.00
78198;BME280;67472;51.554;7.812;2023-05-07T08:10:49;101048.72;;;16.72;100.00
78198;BME280;67472;51.554;7.812;2023-05-07T08:13:43;101052.84;;;16.67;100.00
78198;BME280;67472;51.554;7.812;2023-05-07T08:16:30;101049.00;;;16.44;100.00
78198;BME280;67472;51.554;7.812;2023-05-07T08:19:18;101050.28;;;16.57;100.00
78198;BME280;67472;51.554;7.812;2023-05-07T08:22:06;101044.44;;;16.79;100.00
78198;BME280;67472;51.554;7.812;2023-05-07T08:24:52;101031.13;;;16.87;100.00
78198;BME280;67472;51.554;7.812;2023-05-07T08:27:39;101015.78;;;17.23;100.00
78198;BME280;67472;51.554;7.812;2023-05-07T08:30:26;101003.44;;;17.22;100.00
78198;BME280;67472;51.554;7.812;2023-05-07T08:33:12;100988.53;;;17.62;100.00
78198;BME280;67472;51.554;7.812;2023-05-07T08:35:59;100974.59;;;17.34;100.00
78198;BME280;67472;51.554;7.812;2023-05-07T08:38:47;100980.56;;;17.78;100.00
78198;BME280;67472;51.554;7.812;2023-05-07T08:41:34;100973.41;;;17.20;100.00
78198;BME280;67472;51.554;7.812;2023-05-07T08:44:22;100987.13;;;16.91;100.00
78198;BME280;67472;51.554;7.812;2023-05-07T08:47:11;100991.38;;;17.18;100.00
78198;BME280;67472;51.554;7.812;2023-05-07T08:49:58;100991.25;;;17.28;100.00
78198;BME280;67472;51.554;7.812;2023-05-07T08:52:45;100990.03;;;17.06;100.00
78198;BME280;67472;51.554;7.812;2023-05-07T08:55:33;100975.22;;;17.12;100.00
78198;BME280;67472;51.554;7.812;2023-05-07T08:58:19;100979.75;;;17.27;100.00
78198;BME280;67472;51.554;7.812;2023-05-07T09:01:07;100971.91;;;17.18;100.00
78198;BME280;67472;51.554;7.812;2023-05-07T09:03:55;100966.75;;;17.32;100.00
78198;BME280;67472;51.554;7.812;2023-05-07T09:06:42;100973.91;;;17.24;100.00
78198;BME280;67472;51.554;7.812;2023-05-07T09:09:32;100967.44;;;17.34;100.00
78198;BME280;67472;51.554;7.812;2023-05-07T09:12:21;100964.91;;;17.33;100.00
78198;BME280;67472;51.554;7.812;2023-05-07T09:15:08;100966.78;;;17.40;100.00
78198;BME280;67472;51.554;7.812;2023-05-07T09:17:59;100969.53;;;17.73;100.00
78198;BME280;67472;51.554;7.812;2023-05-07T09:20:46;100954.28;;;17.49;100.00
78198;BME280;67472;51.554;7.812;2023-05-07T09:23:33;100946.81;;;17.93;100.00
78198;BME280;67472;51.554;7.812;2023-05-07T09:26:21;100942.97;;;18.20;100.00
78198;BME280;67472;51.554;7.812;2023-05-07T09:29:10;100935.03;;;18.58;100.00
78198;BME280;67472;51.554;7.812;2023-05-07T09:31:57;100932.41;;;19.20;100.00
78198;BME280;67472;51.554;7.812;2023-05-07T09:34:43;100914.06;;;19.09;100.00
78198;BME280;67472;51.554;7.812;2023-05-07T09:37:31;100897.88;;;19.25;100.00
78198;BME280;67472;51.554;7.812;2023-05-07T09:40:22;100897.91;;;19.48;100.00
78198;BME280;67472;51.554;7.812;2023-05-07T09:43:09;100896.81;;;19.80;100.00
78198;BME280;67472;51.554;7.812;2023-05-07T09:46:03;100885.28;;;19.79;100.00
78198;BME280;67472;51.554;7.812;2023-05-07T09:48:52;100877.56;;;19.61;100.00
78198;BME280;67472;51.554;7.812;2023-05-07T09:51:45;100877.47;;;19.24;100.00
78198;BME280;67472;51.554;7.812;2023-05-07T09:54:35;100885.78;;;18.76;100.00
78198;BME280;67472;51.554;7.812;2023-05-07T09:57:23;100895.47;;;18.77;100.00
78198;BME280;67472;51.554;7.812;2023-05-07T10:00:17;100899.94;;;18.37;100.00
78198;BME280;67472;51.554;7.812;2023-05-07T10:03:09;100909.50;;;18.24;100.00
78198;BME280;67472;51.554;7.812;2023-05-07T10:06:08;100913.75;;;18.65;100.00
78198;BME280;67472;51.554;7.812;2023-05-07T10:08:56;100902.41;;;18.55;100.00
78198;BME280;67472;51.554;7.812;2023-05-07T10:11:43;100899.72;;;18.63;100.00
78198;BME280;67472;51.554;7.812;2023-05-07T10:14:30;100901.78;;;18.84;100.00
78198;BME280;67472;51.554;7.812;2023-05-07T10:17:17;100902.97;;;18.89;100.00
78198;BME280;67472;51.554;7.812;2023-05-07T10:20:07;100896.19;;;19.01;100.00
78198;BME280;67472;51.554;7.812;2023-05-07T10:22:56;100884.06;;;19.36;100.00
78198;BME280;67472;51.554;7.812;2023-05-07T10:25:49;100876.88;;;19.82;100.00
78198;BME280;67472;51.554;7.812;2023-05-07T10:28:43;100867.28;;;19.65;100.00
78198;BME280;67472;51.554;7.812;2023-05-07T10:31:47;100866.97;;;19.83;100.00
78198;BME280;67472;51.554;7.812;2023-05-07T10:34:37;100855.78;;;19.79;100.00
78198;BME280;67472;51.554;7.812;2023-05-07T10:37:26;100861.72;;;19.89;100.00
78198;BME280;67472;51.554;7.812;2023-05-07T10:40:14;100856.06;;;19.84;100.00
78198;BME280;67472;51.554;7.812;2023-05-07T10:43:04;100861.06;;;19.87;100.00
78198;BME280;67472;51.554;7.812;2023-05-07T10:46:10;100858.25;;;19.66;100.00
78198;BME280;67472;51.554;7.812;2023-05-07T10:49:09;100857.75;;;19.62;100.00
78198;BME280;67472;51.554;7.812;2023-05-07T10:52:21;100858.25;;;19.66;100.00
78198;BME280;67472;51.554;7.812;2023-05-07T10:55:33;100862.69;;;19.73;100.00
78198;BME280;67472;51.554;7.812;2023-05-07T10:58:26;100852.91;;;19.81;100.00
78198;BME280;67472;51.554;7.812;2023-05-07T11:01:52;100850.78;;;19.76;100.00
78198;BME280;67472;51.554;7.812;2023-05-07T11:04:44;100846.47;;;20.04;100.00
78198;BME280;67472;51.554;7.812;2023-05-07T11:07:54;100840.44;;;19.88;100.00
78198;BME280;67472;51.554;7.812;2023-05-07T11:10:50;100849.84;;;19.69;100.00
78198;BME280;67472;51.554;7.812;2023-05-07T11:13:49;100855.63;;;19.58;100.00
78198;BME280;67472;51.554;7.812;2023-05-07T11:17:03;100831.72;;;19.71;100.00
78198;BME280;67472;51.554;7.812;2023-05-07T11:19:52;100845.03;;;19.64;100.00
78198;BME280;67472;51.554;7.812;2023-05-07T11:23:04;100840.84;;;19.62;100.00
78198;BME280;67472;51.554;7.812;2023-05-07T11:26:00;100837.94;;;19.86;100.00
78198;BME280;67472;51.554;7.812;2023-05-07T11:28:47;100829.16;;;19.78;100.00
78198;BME280;67472;51.554;7.812;2023-05-07T11:31:33;100819.41;;;19.62;100.00
78198;BME280;67472;51.554;7.812;2023-05-07T11:34:21;100820.56;;;19.45;100.00
78198;BME280;67472;51.554;7.812;2023-05-07T11:37:09;100836.25;;;19.56;100.00
78198;BME280;67472;51.554;7.812;2023-05-07T11:40:07;100836.84;;;19.43;100.00
78198;BME280;67472;51.554;7.812;2023-05-07T11:42:56;100837.03;;;19.56;100.00
78198;BME280;67472;51.554;7.812;2023-05-07T11:45:42;100827.25;;;19.49;100.00
78198;BME280;67472;51.554;7.812;2023-05-07T11:48:29;100835.78;;;19.67;100.00
78198;BME280;67472;51.554;7.812;2023-05-07T11:51:19;100830.38;;;19.90;100.00
78198;BME280;67472;51.554;7.812;2023-05-07T11:54:05;100819.31;;;20.37;100.00
78198;BME280;67472;51.554;7.812;2023-05-07T11:56:55;100808.22;;;20.25;100.00
78198;BME280;67472;51.554;7.812;2023-05-07T11:59:45;100804.47;;;20.11;100.00
78198;BME280;67472;51.554;7.812;2023-05-07T12:02:32;100819.28;;;19.93;100.00
78198;BME280;67472;51.554;7.812;2023-05-07T12:05:19;100821.06;;;20.29;100.00
78198;BME280;67472;51.554;7.812;2023-05-07T12:08:06;100815.31;;;20.33;100.00
78198;BME280;67472;51.554;7.812;2023-05-07T12:10:52;100805.94;;;20.43;100.00
78198;BME280;67472;51.554;7.812;2023-05-07T12:13:39;100825.75;;;20.13;100.00
78198;BME280;67472;51.554;7.812;2023-05-07T12:16:27;100836.16;;;20.31;100.00
78198;BME280;67472;51.554;7.812;2023-05-07T12:19:14;100844.16;;;20.60;100.00
78198;BME280;67472;51.554;7.812;2023-05-07T12:22:01;100829.16;;;21.01;100.00
78198;BME280;67472;51.554;7.812;2023-05-07T12:24:49;100820.16;;;21.79;100.00
78198;BME280;67472;51.554;7.812;2023-05-07T12:27:36;100816.09;;;22.17;100.00
78198;BME280;67472;51.554;7.812;2023-05-07T12:30:23;100792.38;;;21.72;100.00
78198;BME280;67472;51.554;7.812;2023-05-07T12:33:11;100797.94;;;21.42;100.00
78198;BME280;67472;51.554;7.812;2023-05-07T12:35:57;100808.41;;;20.74;100.00
78198;BME280;67472;51.554;7.812;2023-05-07T12:38:43;100800.44;;;20.30;100.00
78198;BME280;67472;51.554;7.812;2023-05-07T12:41:30;100817.91;;;20.41;100.00
78198;BME280;67472;51.554;7.812;2023-05-07T12:44:16;100805.59;;;20.32;100.00
78198;BME280;67472;51.554;7.812;2023-05-07T12:47:02;100814.31;;;20.34;100.00
78198;BME280;67472;51.554;7.812;2023-05-07T12:49:50;100815.00;;;20.71;100.00
78198;BME280;67472;51.554;7.812;2023-05-07T12:52:36;100823.56;;;20.81;100.00
78198;BME280;67472;51.554;7.812;2023-05-07T12:55:23;100832.84;;;21.15;100.00
78198;BME280;67472;51.554;7.812;2023-05-07T12:58:15;100822.09;;;21.36;100.00
78198;BME280;67472;51.554;7.812;2023-05-07T13:01:04;100819.03;;;20.82;100.00
78198;BME280;67472;51.554;7.812;2023-05-07T13:03:51;100828.06;;;20.60;100.00
78198;BME280;67472;51.554;7.812;2023-05-07T13:06:38;100842.13;;;20.98;100.00
78198;BME280;67472;51.554;7.812;2023-05-07T13:09:25;100836.75;;;20.98;100.00
78198;BME280;67472;51.554;7.812;2023-05-07T13:12:12;100829.25;;;20.72;100.00
78198;BME280;67472;51.554;7.812;2023-05-07T13:14:59;100842.84;;;20.70;100.00
78198;BME280;67472;51.554;7.812;2023-05-07T13:17:45;100848.50;;;20.61;100.00
78198;BME280;67472;51.554;7.812;2023-05-07T13:20:32;100846.50;;;20.48;100.00
78198;BME280;67472;51.554;7.812;2023-05-07T13:23:19;100850.72;;;20.72;100.00
78198;BME280;67472;51.554;7.812;2023-05-07T13:26:05;100843.56;;;20.79;100.00
78198;BME280;67472;51.554;7.812;2023-05-07T13:28:52;100842.69;;;20.72;100.00
78198;BME280;67472;51.554;7.812;2023-05-07T13:31:38;100838.25;;;21.00;100.00
78198;BME280;67472;51.554;7.812;2023-05-07T13:34:27;100830.81;;;21.02;100.00
78198;BME280;67472;51.554;7.812;2023-05-07T13:37:14;100843.03;;;21.05;100.00
78198;BME280;67472;51.554;7.812;2023-05-07T13:40:01;100833.91;;;20.84;100.00
78198;BME280;67472;51.554;7.812;2023-05-07T13:42:48;100836.75;;;20.62;100.00
78198;BME280;67472;51.554;7.812;2023-05-07T13:45:35;100848.31;;;20.77;100.00
78198;BME280;67472;51.554;7.812;2023-05-07T13:48:21;100846.75;;;20.53;100.00
78198;BME280;67472;51.554;7.812;2023-05-07T13:51:07;100833.97;;;20.11;100.00
78198;BME280;67472;51.554;7.812;2023-05-07T13:53:54;100849.41;;;19.95;100.00
78198;BME280;67472;51.554;7.812;2023-05-07T13:56:41;100852.94;;;19.95;100.00
78198;BME280;67472;51.554;7.812;2023-05-07T13:59:28;100862.34;;;19.91;100.00
78198;BME280;67472;51.554;7.812;2023-05-07T14:02:15;100867.22;;;19.73;100.00
78198;BME280;67472;51.554;7.812;2023-05-07T14:05:01;100858.53;;;19.71;100.00
78198;BME280;67472;51.554;7.812;2023-05-07T14:07:47;100855.84;;;19.71;100.00
78198;BME280;67472;51.554;7.812;2023-05-07T14:10:36;100863.44;;;19.67;100.00
78198;BME280;67472;51.554;7.812;2023-05-07T14:13:23;100877.00;;;19.66;100.00
78198;BME280;67472;51.554;7.812;2023-05-07T14:16:10;100874.16;;;19.45;100.00
78198;BME280;67472;51.554;7.812;2023-05-07T14:18:57;100872.53;;;19.36;100.00
78198;BME280;67472;51.554;7.812;2023-05-07T14:21:43;100878.06;;;19.34;100.00
78198;BME280;67472;51.554;7.812;2023-05-07T14:24:29;100883.47;;;19.26;100.00
78198;BME280;67472;51.554;7.812;2023-05-07T14:27:16;100894.00;;;19.28;100.00
78198;BME280;67472;51.554;7.812;2023-05-07T14:30:04;100885.44;;;19.09;100.00